Time;durP1;ratioP1;P1;durP2;ratioP2;P2;SDS_P1;SDS_P2;PMS_P1;PMS_P2;Temp;Humidity;BMP_temperature;BMP_pressure;BME280_temperature;BME280_humidity;BME280_pressure;Samples;Min_cycle;Max_cycle;Signal;HPM_P1;HPM_P2
2022/01/12 00:01:34;;;;;;;;;;;23.10;19.70;;;;;;5120695;27;20199;-45
2022/01/12 00:03:59;;;;;;;;;;;23.10;19.70;;;;;;5126765;28;20006;-44
2022/01/12 00:06:25;;;;;;;;;;;23.00;19.80;;;;;;5121376;28;19923;-51
2022/01/12 00:08:51;;;;;;;;;;;22.60;20.00;;;;;;5124593;28;19930;-43
2022/01/12 00:11:19;;;;;;;;;;;19.30;23.70;;;;;;5121269;28;19924;-44
2022/01/12 00:13:45;;;;;;;;;;;21.30;21.50;;;;;;5121401;28;19928;-44
2022/01/12 00:16:11;;;;;;;;;;;22.00;20.70;;;;;;5126248;28;20451;-44
2022/01/12 00:18:37;;;;;;;;;;;22.30;20.40;;;;;;5120840;28;20353;-43
2022/01/12 00:21:03;;;;;;;;;;;22.40;20.30;;;;;;5121025;28;20149;-45
2022/01/12 00:23:28;;;;;;;;;;;22.70;20.10;;;;;;5126434;28;19966;-44
2022/01/12 00:26:01;;;;;;;;;;;22.70;20.10;;;;;;5120619;28;19930;-45
2022/01/12 00:34:00;;;;;;;;;;;22.90;20.00;;;;;;5088364;28;19927;-43
2022/01/12 00:36:26;;;;;;;;;;;22.90;20.00;;;;;;5120493;28;20095;-44
2022/01/12 00:38:52;;;;;;;;;;;22.90;20.00;;;;;;5126400;28;19987;-44
2022/01/12 00:41:18;;;;;;;;;;;22.90;20.00;;;;;;5120860;28;20034;-45
2022/01/12 00:43:46;;;;;;;;;;;22.90;20.00;;;;;;5126069;28;19924;-46
2022/01/12 00:46:14;;;;;;;;;;;23.00;20.00;;;;;;5119364;28;20303;-47
2022/01/12 00:48:40;;;;;;;;;;;23.00;20.00;;;;;;5101020;28;20028;-47
2022/01/12 00:51:07;;;;;;;;;;;23.00;20.00;;;;;;5126265;28;20306;-47
2022/01/12 00:53:33;;;;;;;;;;;23.00;20.00;;;;;;5102147;28;19924;-46
2022/01/12 00:55:59;;;;;;;;;;;23.10;19.90;;;;;;5120447;28;20010;-49
2022/01/12 00:58:24;;;;;;;;;;;22.30;20.40;;;;;;5126144;28;19931;-48
2022/01/12 01:00:50;;;;;;;;;;;19.80;23.40;;;;;;5120940;28;19931;-49
2022/01/12 01:03:16;;;;;;;;;;;21.50;21.50;;;;;;5120921;28;19925;-57
2022/01/12 01:05:42;;;;;;;;;;;22.30;20.70;;;;;;5124275;28;20370;-49
2022/01/12 01:08:08;;;;;;;;;;;22.50;20.40;;;;;;5116497;28;19982;-50
2022/01/12 01:12:59;;;;;;;;;;;22.70;20.30;;;;;;5119950;27;20018;-50
2022/01/12 01:15:52;;;;;;;;;;;22.80;20.20;;;;;;5120433;28;19955;-52
2022/01/12 01:26:25;;;;;;;;;;;23.00;20.00;;;;;;5123166;28;19930;-58
2022/01/12 01:28:51;;;;;;;;;;;19.40;23.50;;;;;;5123052;28;20359;-48
2022/01/12 01:31:19;;;;;;;;;;;21.30;21.80;;;;;;5120040;28;19924;-51
2022/01/12 01:33:45;;;;;;;;;;;22.00;20.90;;;;;;5125613;28;20453;-50
2022/01/12 01:36:11;;;;;;;;;;;22.40;20.60;;;;;;5120303;28;19924;-52
2022/01/12 01:38:38;;;;;;;;;;;22.50;20.40;;;;;;5120221;28;20423;-49
2022/01/12 01:41:04;;;;;;;;;;;22.60;20.30;;;;;;5123584;28;19923;-50
2022/01/12 01:43:44;;;;;;;;;;;22.70;20.20;;;;;;5120094;28;20262;-49
2022/01/12 01:54:23;;;;;;;;;;;23.00;20.00;;;;;;5103348;28;20013;-51
2022/01/12 01:56:49;;;;;;;;;;;23.10;19.90;;;;;;5090093;28;20230;-50
2022/01/12 01:59:15;;;;;;;;;;;23.00;20.00;;;;;;5100104;28;20062;-50
2022/01/12 02:01:41;;;;;;;;;;;19.50;23.60;;;;;;5119730;28;20183;-53
2022/01/12 02:04:06;;;;;;;;;;;21.30;21.70;;;;;;5125240;28;20418;-50
2022/01/12 02:06:32;;;;;;;;;;;22.20;20.80;;;;;;5119793;28;19931;-49
2022/01/12 02:08:58;;;;;;;;;;;22.40;20.60;;;;;;5123540;28;19930;-57
2022/01/12 02:11:25;;;;;;;;;;;22.60;20.40;;;;;;5121665;28;19932;-50
2022/01/12 02:13:51;;;;;;;;;;;22.60;20.30;;;;;;5119793;28;19927;-48
2022/01/12 02:16:19;;;;;;;;;;;22.80;20.30;;;;;;5106701;28;20402;-50
2022/01/12 02:35:36;;;;;;;;;;;22.00;21.00;;;;;;5095909;28;19924;-51
2022/01/12 02:40:49;;;;;;;;;;;22.60;20.50;;;;;;5122923;28;19923;-49
2022/01/12 02:43:41;;;;;;;;;;;22.70;20.30;;;;;;5127911;28;19927;-53
2022/01/12 02:53:38;;;;;;;;;;;22.90;20.20;;;;;;5125040;28;19927;-56
2022/01/12 02:54:21;;;;;;;;;;;23.00;20.10;;;;;;5127006;28;19927;-53
2022/01/12 02:56:47;;;;;;;;;;;20.70;22.10;;;;;;5121772;28;19971;-50
2022/01/12 02:59:13;;;;;;;;;;;21.00;22.00;;;;;;5109021;28;19938;-49
2022/01/12 03:04:10;;;;;;;;;;;22.30;20.60;;;;;;5122040;28;19928;-46
2022/01/12 03:06:38;;;;;;;;;;;22.60;20.30;;;;;;5127800;28;20283;-46
2022/01/12 03:09:07;;;;;;;;;;;22.70;20.20;;;;;;5122568;28;19923;-46
2022/01/12 03:11:34;;;;;;;;;;;22.80;20.10;;;;;;5122353;28;19987;-49
2022/01/12 03:14:00;;;;;;;;;;;22.90;20.10;;;;;;5125600;28;19932;-46
2022/01/12 03:16:26;;;;;;;;;;;22.90;20.00;;;;;;5122164;28;19923;-49
2022/01/12 03:18:53;;;;;;;;;;;23.00;19.90;;;;;;5122347;28;19929;-57
2022/01/12 03:21:19;;;;;;;;;;;19.70;23.00;;;;;;5127372;28;20524;-50
2022/01/12 03:23:45;;;;;;;;;;;21.40;21.30;;;;;;5103455;28;20362;-50
2022/01/12 03:26:11;;;;;;;;;;;22.10;20.60;;;;;;5127537;28;19931;-52
2022/01/12 03:28:38;;;;;;;;;;;22.40;20.30;;;;;;5121982;28;20010;-50
2022/01/12 03:31:10;;;;;;;;;;;22.60;20.20;;;;;;5121255;28;20305;-53
2022/01/12 03:33:51;;;;;;;;;;;22.80;20.10;;;;;;5126442;28;20362;-51
2022/01/12 03:36:26;;;;;;;;;;;22.80;20.00;;;;;;5120712;27;19931;-51
2022/01/12 03:38:52;;;;;;;;;;;22.90;19.90;;;;;;5121849;28;19976;-51
2022/01/12 03:41:17;;;;;;;;;;;23.00;19.90;;;;;;5126926;28;19936;-53
2022/01/12 03:43:43;;;;;;;;;;;22.90;19.80;;;;;;5103740;28;19966;-51
2022/01/12 03:46:09;;;;;;;;;;;19.70;23.50;;;;;;5122052;28;20341;-49
2022/01/12 03:48:35;;;;;;;;;;;21.60;21.30;;;;;;5127030;28;19968;-47
2022/01/12 03:51:01;;;;;;;;;;;22.20;20.60;;;;;;5119512;28;20306;-48
2022/01/12 03:53:27;;;;;;;;;;;22.50;20.30;;;;;;5126331;28;19959;-54
2022/01/12 03:55:52;;;;;;;;;;;22.60;20.20;;;;;;5103986;28;19976;-47
2022/01/12 03:58:18;;;;;;;;;;;22.80;20.10;;;;;;5121293;28;20398;-50
2022/01/12 04:00:44;;;;;;;;;;;22.90;20.00;;;;;;5126878;28;19923;-49
2022/01/12 04:03:10;;;;;;;;;;;22.90;20.00;;;;;;5121781;28;19930;-50
2022/01/12 04:08:20;;;;;;;;;;;21.50;21.50;;;;;;5126182;28;19924;-53
2022/01/12 04:10:56;;;;;;;;;;;22.10;20.80;;;;;;5120228;28;19949;-50
2022/01/12 04:13:23;;;;;;;;;;;22.40;20.60;;;;;;5121184;28;20357;-51
2022/01/12 04:15:50;;;;;;;;;;;22.70;20.40;;;;;;5126222;28;20294;-54
2022/01/12 04:18:15;;;;;;;;;;;22.80;20.30;;;;;;5121067;28;19928;-50
2022/01/12 04:20:49;;;;;;;;;;;22.80;20.10;;;;;;5121962;28;19931;-57
2022/01/12 04:23:18;;;;;;;;;;;23.00;20.00;;;;;;5126809;28;19928;-52
2022/01/12 04:25:45;;;;;;;;;;;23.00;19.80;;;;;;5121182;28;20362;-50
2022/01/12 04:28:11;;;;;;;;;;;20.40;22.50;;;;;;5124624;28;19956;-54
2022/01/12 04:30:36;;;;;;;;;;;21.80;21.00;;;;;;5121086;28;19935;-50
2022/01/12 04:33:02;;;;;;;;;;;22.30;20.40;;;;;;5121000;28;19923;-50
2022/01/12 04:35:33;;;;;;;;;;;22.50;20.20;;;;;;5126250;28;19923;-51
2022/01/12 04:37:59;;;;;;;;;;;22.70;20.10;;;;;;5120910;28;19924;-51
2022/01/12 04:40:25;;;;;;;;;;;22.80;19.90;;;;;;5121077;28;19928;-50
2022/01/12 04:42:53;;;;;;;;;;;22.90;19.80;;;;;;5126404;28;20410;-55
2022/01/12 04:45:46;;;;;;;;;;;21.30;21.30;;;;;;5120087;28;19947;-51
2022/01/12 04:50:43;;;;;;;;;;;22.10;20.60;;;;;;5126252;28;20301;-54
2022/01/12 04:53:09;;;;;;;;;;;22.50;20.20;;;;;;5120394;28;20012;-56
2022/01/12 04:55:35;;;;;;;;;;;22.70;20.10;;;;;;5120369;28;19923;-57
2022/01/12 04:58:01;;;;;;;;;;;22.80;19.90;;;;;;5126158;28;19927;-52
2022/01/12 05:00:28;;;;;;;;;;;22.10;20.40;;;;;;5120937;28;19955;-53
2022/01/12 05:13:39;;;;;;;;;;;22.70;20.00;;;;;;5125941;28;19960;-57
2022/01/12 05:16:05;;;;;;;;;;;22.90;19.80;;;;;;5102034;28;19924;-58
2022/01/12 05:18:31;;;;;;;;;;;23.00;19.70;;;;;;5126426;28;20006;-59
2022/01/12 05:20:57;;;;;;;;;;;20.70;21.80;;;;;;5120739;28;19944;-54
2022/01/12 05:23:23;;;;;;;;;;;21.30;21.50;;;;;;5118259;28;19927;-49
2022/01/12 05:25:51;;;;;;;;;;;22.10;20.60;;;;;;5105621;28;19927;-48
2022/01/12 05:28:17;;;;;;;;;;;22.50;20.30;;;;;;5101789;28;20413;-49
2022/01/12 05:30:42;;;;;;;;;;;22.70;20.10;;;;;;5119716;28;19982;-49
2022/01/12 05:33:09;;;;;;;;;;;22.80;20.00;;;;;;5107119;28;19928;-53
2022/01/12 05:35:35;;;;;;;;;;;23.00;19.90;;;;;;5120309;28;19930;-54
2022/01/12 05:38:02;;;;;;;;;;;22.40;20.20;;;;;;5105226;28;20250;-58
2022/01/12 05:40:28;;;;;;;;;;;20.40;22.50;;;;;;5122795;28;19929;-50
2022/01/12 05:42:55;;;;;;;;;;;21.80;21.00;;;;;;5118461;28;19923;-49
2022/01/12 05:45:21;;;;;;;;;;;22.30;20.40;;;;;;5125898;28;20505;-51
2022/01/12 05:50:13;;;;;;;;;;;22.80;20.00;;;;;;5119737;28;19933;-49
2022/01/12 05:52:39;;;;;;;;;;;22.90;19.90;;;;;;5125198;28;20344;-52
2022/01/12 05:55:05;;;;;;;;;;;23.00;19.80;;;;;;5120555;28;19971;-52
2022/01/12 05:57:31;;;;;;;;;;;19.50;23.10;;;;;;5119983;28;19927;-54
2022/01/12 05:59:57;;;;;;;;;;;21.30;21.40;;;;;;5125745;27;19991;-51
2022/01/12 06:02:23;;;;;;;;;;;22.10;20.50;;;;;;5123122;28;20404;-51
2022/01/12 06:04:48;;;;;;;;;;;22.50;20.20;;;;;;5128936;28;19955;-52
2022/01/12 06:07:14;;;;;;;;;;;22.70;20.00;;;;;;5123262;28;19923;-53
2022/01/12 06:09:40;;;;;;;;;;;22.80;19.90;;;;;;5123059;28;19930;-52
2022/01/12 06:12:06;;;;;;;;;;;22.90;19.80;;;;;;5128667;28;19923;-52
2022/01/12 06:14:32;;;;;;;;;;;23.00;19.70;;;;;;5123869;28;20295;-53
2022/01/12 06:16:58;;;;;;;;;;;20.40;22.20;;;;;;5123187;28;19938;-56
2022/01/12 06:19:23;;;;;;;;;;;21.80;20.80;;;;;;5126702;28;19976;-55
2022/01/12 06:21:49;;;;;;;;;;;22.30;20.20;;;;;;5122962;28;19933;-53
2022/01/12 06:24:15;;;;;;;;;;;22.60;20.00;;;;;;5109360;28;19923;-57
2022/01/12 06:26:43;;;;;;;;;;;22.80;19.90;;;;;;5122892;28;20336;-57
2022/01/12 06:31:35;;;;;;;;;;;22.20;20.30;;;;;;5128718;28;19924;-54
2022/01/12 06:34:01;;;;;;;;;;;21.10;21.60;;;;;;5122812;28;19927;-55
2022/01/12 06:36:27;;;;;;;;;;;22.00;20.70;;;;;;5121968;28;19983;-58
2022/01/12 06:38:52;;;;;;;;;;;22.40;20.20;;;;;;5126770;28;19931;-52
2022/01/12 06:41:18;;;;;;;;;;;22.70;20.00;;;;;;5122733;28;20326;-53
2022/01/12 06:43:44;;;;;;;;;;;22.90;19.90;;;;;;5127658;28;20054;-56
2022/01/12 06:46:10;;;;;;;;;;;23.00;19.80;;;;;;5123011;28;20423;-58
2022/01/12 06:48:36;;;;;;;;;;;22.90;19.60;;;;;;5123216;28;19923;-56
2022/01/12 06:51:03;;;;;;;;;;;20.70;22.20;;;;;;5128227;28;19946;-55
2022/01/12 06:53:29;;;;;;;;;;;21.80;20.80;;;;;;5103102;28;19930;-56
2022/01/12 06:55:55;;;;;;;;;;;22.40;20.30;;;;;;5120394;28;19952;-58
2022/01/12 06:58:21;;;;;;;;;;;22.70;20.10;;;;;;5127845;28;19932;-55
2022/01/12 07:00:47;;;;;;;;;;;22.80;19.90;;;;;;5122472;28;19923;-59
2022/01/12 07:03:13;;;;;;;;;;;22.00;20.40;;;;;;5104464;28;20207;-59
2022/01/12 07:05:39;;;;;;;;;;;21.20;21.50;;;;;;5107496;28;19927;-61
2022/01/12 07:08:05;;;;;;;;;;;22.00;20.50;;;;;;5122346;28;19935;-58
2022/01/12 07:10:30;;;;;;;;;;;22.50;20.10;;;;;;5127732;27;19972;-58
2022/01/12 07:12:56;;;;;;;;;;;22.70;19.90;;;;;;5103971;28;20410;-59
2022/01/12 07:15:22;;;;;;;;;;;22.90;19.70;;;;;;5120364;28;20801;-60
2022/01/12 07:17:49;;;;;;;;;;;23.00;19.60;;;;;;5127791;28;19924;-58
2022/01/12 07:20:15;;;;;;;;;;;22.80;19.60;;;;;;5122665;28;19923;-57
2022/01/12 07:22:41;;;;;;;;;;;20.60;22.00;;;;;;5121913;28;19968;-48
2022/01/12 07:25:07;;;;;;;;;;;21.90;20.50;;;;;;5127278;28;19924;-52
2022/01/12 07:27:33;;;;;;;;;;;22.40;20.00;;;;;;5121975;28;20022;-52
2022/01/12 07:30:00;;;;;;;;;;;22.80;19.70;;;;;;5127529;28;20463;-51
2022/01/12 07:32:26;;;;;;;;;;;22.90;19.50;;;;;;5120909;28;21197;-58
2022/01/12 07:34:52;;;;;;;;;;;21.70;20.50;;;;;;5121748;28;20481;-55
2022/01/12 07:37:18;;;;;;;;;;;21.30;21.00;;;;;;5127304;28;19924;-58
2022/01/12 07:39:44;;;;;;;;;;;22.20;20.10;;;;;;5121689;28;19927;-59
2022/01/12 07:42:11;;;;;;;;;;;22.60;19.80;;;;;;5121568;28;20008;-58
2022/01/12 07:44:37;;;;;;;;;;;22.70;19.60;;;;;;5109055;28;19945;-60
2022/01/12 07:47:03;;;;;;;;;;;23.00;19.40;;;;;;5121878;28;19924;-60
2022/01/12 07:49:29;;;;;;;;;;;23.20;19.30;;;;;;5127949;28;20007;-55
2022/01/12 07:51:54;;;;;;;;;;;20.40;22.00;;;;;;5119712;28;20309;-56
2022/01/12 07:54:20;;;;;;;;;;;21.80;20.50;;;;;;5121688;28;19930;-60
2022/01/12 07:56:46;;;;;;;;;;;22.40;19.90;;;;;;5126807;28;20324;-60
2022/01/12 07:59:11;;;;;;;;;;;22.80;19.60;;;;;;5102907;28;19931;-60
2022/01/12 08:01:37;;;;;;;;;;;22.90;19.40;;;;;;5121430;28;20322;-60
2022/01/12 08:04:03;;;;;;;;;;;23.10;19.30;;;;;;5128005;28;20720;-57
2022/01/12 08:06:29;;;;;;;;;;;20.10;21.90;;;;;;5121647;28;19924;-57
2022/01/12 08:08:56;;;;;;;;;;;21.60;20.60;;;;;;5125621;28;19949;-58
2022/01/12 08:11:22;;;;;;;;;;;22.30;19.90;;;;;;5089303;28;19934;-57
2022/01/12 08:13:49;;;;;;;;;;;22.70;19.60;;;;;;5121126;28;19924;-57
2022/01/12 08:16:15;;;;;;;;;;;22.90;19.40;;;;;;5126355;28;20297;-57
2022/01/12 08:18:41;;;;;;;;;;;22.80;19.30;;;;;;5121711;28;19924;-57
2022/01/12 08:21:06;;;;;;;;;;;20.80;21.50;;;;;;5120835;27;19976;-56
2022/01/12 08:23:33;;;;;;;;;;;21.90;20.30;;;;;;5125900;28;20318;-54
2022/01/12 08:25:58;;;;;;;;;;;22.40;19.70;;;;;;5121373;28;20268;-56
2022/01/12 08:28:24;;;;;;;;;;;22.80;19.50;;;;;;5120314;28;20067;-58
2022/01/12 08:30:50;;;;;;;;;;;23.00;19.30;;;;;;5125671;28;19923;-60
2022/01/12 08:33:17;;;;;;;;;;;21.80;20.10;;;;;;5121394;28;19934;-56
2022/01/12 08:35:42;;;;;;;;;;;21.30;20.80;;;;;;5125805;28;19927;-60
2022/01/12 08:38:08;;;;;;;;;;;22.20;20.00;;;;;;5120727;28;20371;-59
2022/01/12 08:40:37;;;;;;;;;;;22.60;19.60;;;;;;5102535;28;19923;-61
2022/01/12 08:43:06;;;;;;;;;;;22.80;19.40;;;;;;5101936;28;19984;-58
2022/01/12 08:45:32;;;;;;;;;;;21.90;20.00;;;;;;5121456;28;19943;-56
2022/01/12 08:47:59;;;;;;;;;;;21.10;20.90;;;;;;5118693;28;20195;-60
2022/01/12 08:50:24;;;;;;;;;;;22.20;19.90;;;;;;5126040;28;19929;-60
2022/01/12 08:52:50;;;;;;;;;;;22.60;19.50;;;;;;5102200;28;19924;-61
2022/01/12 08:55:17;;;;;;;;;;;22.80;19.30;;;;;;5125909;28;19927;-60
2022/01/12 08:57:43;;;;;;;;;;;22.70;19.20;;;;;;5121471;28;20026;-60
2022/01/12 09:00:09;;;;;;;;;;;20.40;21.60;;;;;;5120635;28;19969;-60
2022/01/12 09:02:35;;;;;;;;;;;21.90;20.10;;;;;;5126189;28;20374;-60
2022/01/12 09:05:00;;;;;;;;;;;22.50;19.50;;;;;;5100473;28;20205;-61
2022/01/12 09:07:26;;;;;;;;;;;22.80;19.30;;;;;;5119876;28;20315;-61
2022/01/12 09:09:52;;;;;;;;;;;23.00;19.10;;;;;;5125845;28;19923;-62
2022/01/12 09:12:18;;;;;;;;;;;23.20;19.00;;;;;;5121159;28;20294;-61
2022/01/12 09:14:44;;;;;;;;;;;20.60;21.10;;;;;;5124816;28;19973;-58
2022/01/12 09:17:18;;;;;;;;;;;21.80;20.20;;;;;;5121517;28;19931;-54
2022/01/12 09:19:45;;;;;;;;;;;22.40;19.50;;;;;;5120577;28;20233;-50
2022/01/12 09:22:10;;;;;;;;;;;22.80;19.20;;;;;;5125714;27;19923;-52
2022/01/12 09:24:36;;;;;;;;;;;23.00;19.10;;;;;;5100503;28;20401;-60
2022/01/12 09:27:02;;;;;;;;;;;22.40;19.50;;;;;;5121128;28;20348;-59
2022/01/12 09:29:28;;;;;;;;;;;20.30;21.90;;;;;;5125602;28;20000;-56
2022/01/12 09:31:54;;;;;;;;;;;21.80;20.20;;;;;;5119966;28;19923;-55
2022/01/12 09:34:19;;;;;;;;;;;22.30;19.70;;;;;;5122560;27;19930;-56
2022/01/12 09:36:45;;;;;;;;;;;22.80;19.30;;;;;;5129336;28;20385;-56
2022/01/12 09:39:11;;;;;;;;;;;23.00;19.10;;;;;;5124113;28;19984;-60
2022/01/12 09:41:37;;;;;;;;;;;23.10;18.90;;;;;;5128964;28;19931;-56
2022/01/12 09:44:03;;;;;;;;;;;19.80;22.20;;;;;;5122725;28;19945;-55
2022/01/12 09:46:29;;;;;;;;;;;21.50;20.50;;;;;;5123790;28;20080;-61
2022/01/12 09:48:54;;;;;;;;;;;22.30;19.70;;;;;;5128843;28;19931;-61
2022/01/12 09:51:21;;;;;;;;;;;22.70;19.40;;;;;;5123320;28;19923;-60
2022/01/12 09:53:47;;;;;;;;;;;22.90;19.20;;;;;;5123278;28;20208;-61
2022/01/12 09:56:18;;;;;;;;;;;23.20;19.10;;;;;;5125849;28;20018;-57
2022/01/12 09:58:44;;;;;;;;;;;20.70;21.10;;;;;;5123718;28;19927;-59
2022/01/12 10:01:10;;;;;;;;;;;21.50;20.50;;;;;;5126333;28;19957;-60
2022/01/12 10:03:36;;;;;;;;;;;22.30;19.70;;;;;;5123889;28;20291;-58
2022/01/12 10:06:15;;;;;;;;;;;22.70;19.40;;;;;;5123315;28;19934;-59
2022/01/12 10:08:41;;;;;;;;;;;22.90;19.10;;;;;;5128673;28;19930;-60
2022/01/12 10:11:07;;;;;;;;;;;23.10;19.00;;;;;;5123935;28;19928;-57
2022/01/12 10:13:33;;;;;;;;;;;20.40;21.60;;;;;;5123360;28;19966;-58
2022/01/12 10:16:09;;;;;;;;;;;21.90;20.00;;;;;;5110359;28;19930;-61
2022/01/12 10:18:43;;;;;;;;;;;22.50;19.40;;;;;;5122052;28;19923;-57
2022/01/12 10:21:08;;;;;;;;;;;22.90;19.10;;;;;;5121906;27;20547;-61
2022/01/12 10:23:38;;;;;;;;;;;23.10;18.90;;;;;;5097017;28;19924;-61
2022/01/12 10:26:04;;;;;;;;;;;20.20;21.30;;;;;;5122893;28;20447;-58
2022/01/12 10:28:30;;;;;;;;;;;21.70;20.10;;;;;;5122417;28;19923;-58
2022/01/12 10:30:56;;;;;;;;;;;22.40;19.40;;;;;;5128461;28;22038;-58
2022/01/12 10:33:23;;;;;;;;;;;22.80;19.10;;;;;;5122991;28;19942;-58
2022/01/12 10:35:49;;;;;;;;;;;23.00;18.90;;;;;;5128836;28;19979;-61
2022/01/12 10:38:15;;;;;;;;;;;22.40;19.30;;;;;;5121446;28;19930;-57
2022/01/12 10:40:48;;;;;;;;;;;20.70;21.10;;;;;;5122561;28;19923;-60
2022/01/12 10:43:33;;;;;;;;;;;21.80;19.90;;;;;;5128028;28;19931;-60
2022/01/12 10:45:59;;;;;;;;;;;22.50;19.30;;;;;;5121785;27;19953;-62
2022/01/12 10:48:25;;;;;;;;;;;22.80;19.00;;;;;;5122415;28;19923;-61
2022/01/12 10:50:54;;;;;;;;;;;23.10;18.90;;;;;;5110828;28;20430;-60
2022/01/12 10:53:31;;;;;;;;;;;20.30;21.30;;;;;;5122854;28;20528;-57
2022/01/12 10:56:03;;;;;;;;;;;21.80;20.10;;;;;;5120901;28;19938;-59
2022/01/12 10:58:29;;;;;;;;;;;22.50;19.50;;;;;;5127697;28;20864;-61
2022/01/12 11:00:55;;;;;;;;;;;22.80;19.20;;;;;;5122498;28;19939;-60
2022/01/12 11:03:20;;;;;;;;;;;23.10;19.00;;;;;;5104660;28;20422;-62
2022/01/12 11:05:47;;;;;;;;;;;21.50;20.30;;;;;;5128124;28;20322;-58
2022/01/12 11:08:13;;;;;;;;;;;21.30;20.70;;;;;;5104003;28;19927;-53
2022/01/12 11:10:39;;;;;;;;;;;22.30;19.60;;;;;;5127957;28;19976;-56
2022/01/12 11:13:05;;;;;;;;;;;22.70;19.30;;;;;;5122381;28;19923;-53
2022/01/12 11:15:30;;;;;;;;;;;23.00;19.10;;;;;;5120348;28;19931;-59
2022/01/12 11:17:56;;;;;;;;;;;23.20;18.90;;;;;;5128802;28;19980;-57
2022/01/12 11:20:25;;;;;;;;;;;20.10;21.90;;;;;;5122357;28;19923;-58
2022/01/12 11:22:55;;;;;;;;;;;21.90;20.10;;;;;;5121901;27;19928;-60
2022/01/12 11:25:21;;;;;;;;;;;22.60;19.50;;;;;;5127287;28;19927;-59
2022/01/12 11:27:51;;;;;;;;;;;22.80;19.20;;;;;;5122103;28;19923;-61
2022/01/12 11:30:18;;;;;;;;;;;23.10;19.00;;;;;;5108209;28;19931;-59
2022/01/12 11:32:54;;;;;;;;;;;20.30;21.70;;;;;;5125093;28;20201;-58
2022/01/12 11:35:24;;;;;;;;;;;22.00;19.90;;;;;;5121573;28;20014;-60
2022/01/12 11:37:51;;;;;;;;;;;22.60;19.40;;;;;;5109040;28;19927;-58
2022/01/12 11:40:17;;;;;;;;;;;22.90;19.10;;;;;;5121452;28;20018;-61
2022/01/12 11:42:42;;;;;;;;;;;23.10;18.90;;;;;;5123085;28;20623;-58
2022/01/12 11:45:17;;;;;;;;;;;19.80;21.80;;;;;;5096539;28;19931;-57
2022/01/12 11:47:44;;;;;;;;;;;21.80;20.00;;;;;;5086689;28;19945;-54
2022/01/12 11:50:12;;;;;;;;;;;22.50;19.30;;;;;;5121518;28;20286;-52
2022/01/12 11:52:38;;;;;;;;;;;22.80;19.00;;;;;;5125208;28;19983;-55
2022/01/12 11:55:11;;;;;;;;;;;23.10;18.80;;;;;;5122700;28;19932;-62
2022/01/12 11:57:38;;;;;;;;;;;21.10;20.20;;;;;;5102210;28;20497;-56
2022/01/12 12:00:05;;;;;;;;;;;21.50;20.10;;;;;;5126836;28;19923;-58
2022/01/12 12:02:31;;;;;;;;;;;22.40;19.30;;;;;;5121529;28;20340;-60
2022/01/12 12:04:57;;;;;;;;;;;22.70;19.00;;;;;;5127045;28;19931;-58
2022/01/12 12:07:23;;;;;;;;;;;23.00;18.80;;;;;;5122072;28;20356;-62
2022/01/12 12:09:53;;;;;;;;;;;22.50;19.10;;;;;;5121101;28;19924;-58
2022/01/12 12:12:19;;;;;;;;;;;20.30;21.40;;;;;;5126309;28;20385;-54
2022/01/12 12:14:46;;;;;;;;;;;21.80;19.90;;;;;;5121095;28;20414;-60
2022/01/12 12:17:17;;;;;;;;;;;22.50;19.30;;;;;;5200670;27;19919;-60
2022/01/12 12:19:44;;;;;;;;;;;22.80;19.00;;;;;;5205895;27;19922;-61
2022/01/12 12:22:17;;;;;;;;;;;23.10;18.80;;;;;;5186459;27;20342;-58
2022/01/12 12:24:43;;;;;;;;;;;22.10;19.50;;;;;;5161599;27;19930;-54
2022/01/12 12:27:10;;;;;;;;;;;21.10;20.60;;;;;;5184565;27;19926;-51
2022/01/12 12:29:36;;;;;;;;;;;22.10;19.70;;;;;;5177379;27;19933;-49
2022/01/12 12:32:02;;;;;;;;;;;22.60;19.30;;;;;;5184638;27;20293;-52
2022/01/12 12:34:28;;;;;;;;;;;22.90;19.00;;;;;;5179106;27;19923;-60
2022/01/12 12:37:01;;;;;;;;;;;22.90;18.80;;;;;;5160203;27;20002;-56
2022/01/12 12:39:30;;;;;;;;;;;20.60;21.20;;;;;;5184412;27;20021;-55
2022/01/12 12:41:56;;;;;;;;;;;22.00;19.80;;;;;;5179272;27;19933;-55
2022/01/12 12:44:23;;;;;;;;;;;22.60;19.20;;;;;;5160691;27;19927;-50
2022/01/12 12:46:48;;;;;;;;;;;22.90;19.00;;;;;;5182901;27;20336;-62
2022/01/12 12:49:14;;;;;;;;;;;22.90;18.90;;;;;;5179946;27;19942;-53
2022/01/12 12:51:40;;;;;;;;;;;20.10;21.80;;;;;;5179153;27;20055;-57
2022/01/12 12:54:06;;;;;;;;;;;21.90;19.90;;;;;;5183736;27;19929;-59
2022/01/12 12:56:40;;;;;;;;;;;22.50;19.30;;;;;;5178603;27;19923;-59
2022/01/12 12:59:07;;;;;;;;;;;22.80;19.00;;;;;;5184204;27;20009;-58
2022/01/12 13:01:33;;;;;;;;;;;23.10;18.90;;;;;;5180028;27;19929;-56
2022/01/12 13:03:59;;;;;;;;;;;21.30;20.30;;;;;;5179374;27;19923;-57
2022/01/12 13:06:30;;;;;;;;;;;21.30;20.50;;;;;;5182070;27;19927;-59
2022/01/12 13:08:57;;;;;;;;;;;22.30;19.50;;;;;;5178700;27;19929;-59
2022/01/12 13:11:26;;;;;;;;;;;22.70;19.10;;;;;;5178417;27;19929;-58
2022/01/12 13:13:56;;;;;;;;;;;23.00;19.00;;;;;;5184530;27;19970;-57
2022/01/12 13:16:24;;;;;;;;;;;22.00;19.80;;;;;;5179443;27;20284;-53
2022/01/12 13:18:50;;;;;;;;;;;21.00;20.90;;;;;;5178381;27;19923;-58
2022/01/12 13:21:16;;;;;;;;;;;22.10;19.70;;;;;;5183784;27;19933;-57
2022/01/12 13:23:42;;;;;;;;;;;22.70;19.20;;;;;;5176857;27;19933;-60
2022/01/12 13:26:09;;;;;;;;;;;23.00;19.00;;;;;;5183515;27;19926;-56
2022/01/12 13:28:35;;;;;;;;;;;22.80;19.00;;;;;;5166407;27;19927;-55
2022/01/12 13:31:03;;;;;;;;;;;20.00;21.80;;;;;;5164092;27;19933;-53
2022/01/12 13:33:33;;;;;;;;;;;21.80;20.00;;;;;;5169454;27;20071;-60
2022/01/12 13:36:09;;;;;;;;;;;22.50;19.30;;;;;;5164211;27;19922;-57
2022/01/12 13:38:35;;;;;;;;;;;22.80;19.10;;;;;;5164200;27;20383;-59
2022/01/12 13:41:07;;;;;;;;;;;23.10;18.90;;;;;;5170925;27;19923;-62
2022/01/12 13:43:33;;;;;;;;;;;19.90;21.70;;;;;;5161987;27;19927;-56
2022/01/12 13:46:00;;;;;;;;;;;21.70;20.20;;;;;;5163865;27;19976;-54
2022/01/12 13:48:30;;;;;;;;;;;22.30;19.60;;;;;;5169491;27;19933;-52
2022/01/12 13:50:59;;;;;;;;;;;22.80;19.20;;;;;;5163796;27;19979;-54
2022/01/12 13:53:33;;;;;;;;;;;23.00;19.00;;;;;;5169655;27;19923;-63
2022/01/12 13:55:59;;;;;;;;;;;21.70;20.20;;;;;;5149856;27;19929;-53
2022/01/12 13:58:28;;;;;;;;;;;21.50;20.60;;;;;;5145023;27;19927;-50
2022/01/12 14:00:58;;;;;;;;;;;22.30;19.70;;;;;;5167368;27;19981;-51
2022/01/12 14:03:25;;;;;;;;;;;22.80;19.30;;;;;;5144456;27;19923;-47
2022/01/12 14:05:58;;;;;;;;;;;23.00;19.10;;;;;;5164483;27;19927;-54
2022/01/12 14:08:29;;;;;;;;;;;21.80;20.30;;;;;;5150853;27;19930;-55
2022/01/12 14:10:55;;;;;;;;;;;21.30;20.80;;;;;;5144675;27;19929;-54
2022/01/12 14:13:28;;;;;;;;;;;22.30;19.90;;;;;;5163683;27;19929;-56
2022/01/12 14:16:04;;;;;;;;;;;22.70;19.50;;;;;;5169089;27;20348;-57
2022/01/12 14:18:29;;;;;;;;;;;23.00;19.30;;;;;;5163543;27;19990;-60
2022/01/12 14:20:59;;;;;;;;;;;22.70;19.40;;;;;;5162968;27;20123;-53
2022/01/12 14:23:25;;;;;;;;;;;20.40;21.90;;;;;;5150418;27;19923;-58
2022/01/12 14:25:51;;;;;;;;;;;22.00;20.20;;;;;;5144521;27;19929;-55
2022/01/12 14:28:30;;;;;;;;;;;22.60;19.60;;;;;;5167639;27;19927;-59
2022/01/12 14:30:56;;;;;;;;;;;22.90;19.40;;;;;;5150292;27;20018;-59
2022/01/12 14:33:22;;;;;;;;;;;23.10;19.10;;;;;;5146145;27;19927;-52
2022/01/12 14:35:48;;;;;;;;;;;19.70;22.40;;;;;;5150047;27;19931;-52
2022/01/12 14:38:14;;;;;;;;;;;21.80;20.50;;;;;;5160616;27;19923;-46
2022/01/12 14:40:41;;;;;;;;;;;22.50;19.80;;;;;;5162401;27;20430;-45
2022/01/12 14:43:07;;;;;;;;;;;22.80;19.40;;;;;;5150313;27;19929;-59
2022/01/12 14:45:34;;;;;;;;;;;23.10;19.20;;;;;;5163723;27;19923;-55
2022/01/12 14:48:01;;;;;;;;;;;20.50;21.50;;;;;;5144163;27;20192;-54
2022/01/12 14:50:27;;;;;;;;;;;21.50;20.80;;;;;;5168658;27;19931;-49
2022/01/12 14:52:54;;;;;;;;;;;22.30;19.90;;;;;;5163147;27;19929;-47
2022/01/12 14:55:20;;;;;;;;;;;22.70;19.60;;;;;;5167882;27;19929;-52
2022/01/12 14:57:46;;;;;;;;;;;23.00;19.30;;;;;;5162852;27;20335;-59
2022/01/12 15:00:16;;;;;;;;;;;21.00;21.10;;;;;;5163009;27;19932;-53
2022/01/12 15:02:43;;;;;;;;;;;21.30;21.10;;;;;;5168236;27;20483;-49
2022/01/12 15:05:08;;;;;;;;;;;22.30;20.10;;;;;;5162689;27;19927;-49
2022/01/12 15:07:34;;;;;;;;;;;22.70;19.70;;;;;;5162760;27;19927;-50
2022/01/12 15:10:01;;;;;;;;;;;23.00;19.50;;;;;;5168593;27;19955;-53
2022/01/12 15:12:35;;;;;;;;;;;22.30;20.00;;;;;;5163430;27;19922;-52
2022/01/12 15:15:01;;;;;;;;;;;21.00;21.60;;;;;;5160667;27;19927;-58
2022/01/12 15:17:28;;;;;;;;;;;22.20;20.30;;;;;;5167907;27;19971;-46
2022/01/12 15:19:54;;;;;;;;;;;22.70;19.90;;;;;;5162534;27;20009;-51
2022/01/12 15:22:20;;;;;;;;;;;23.00;19.60;;;;;;5167870;27;20013;-56
2022/01/12 15:24:46;;;;;;;;;;;22.60;19.80;;;;;;5144108;27;19922;-53
2022/01/12 15:27:12;;;;;;;;;;;20.70;22.00;;;;;;5162835;27;19929;-48
2022/01/12 15:29:38;;;;;;;;;;;22.00;20.50;;;;;;5168114;27;19971;-47